Time;durP1;ratioP1;P1;durP2;ratioP2;P2;SDS_P1;SDS_P2;PMS_P1;PMS_P2;Temp;Humidity;BMP_temperature;BMP_pressure;BME280_temperature;BME280_humidity;BME280_pressure;Samples;Min_cycle;Max_cycle;Signal;HPM_P1;HPM_P2
2021/06/27 00:00:09;;;;;;;440.93;418.93;;;19.70;99.90;;;;;;6281018;22;20502;-84
2021/06/27 00:02:38;;;;;;;444.07;422.80;;;19.70;99.90;;;;;;6281970;22;20495;-84
2021/06/27 00:05:07;;;;;;;452.27;429.63;;;19.70;99.90;;;;;;6282174;22;20439;-84
2021/06/27 00:07:34;;;;;;;546.17;518.67;;;19.70;99.90;;;;;;6282334;22;20391;-83
2021/06/27 00:10:01;;;;;;;621.53;589.07;;;19.70;99.90;;;;;;6281624;22;20438;-83
2021/06/27 00:12:28;;;;;;;517.73;492.10;;;19.70;99.90;;;;;;6282121;22;20457;-84
2021/06/27 00:14:55;;;;;;;533.13;506.23;;;19.60;99.90;;;;;;6281810;22;20470;-84
2021/06/27 00:17:22;;;;;;;525.90;498.63;;;19.60;99.90;;;;;;6282438;22;20489;-83
2021/06/27 00:19:50;;;;;;;482.83;459.10;;;19.60;99.90;;;;;;6282508;22;20482;-83
2021/06/27 00:22:17;;;;;;;501.57;476.13;;;19.60;99.90;;;;;;6282145;22;20430;-84
2021/06/27 00:24:44;;;;;;;429.30;407.40;;;19.60;99.90;;;;;;6282365;22;20493;-83
2021/06/27 00:27:11;;;;;;;419.73;399.27;;;19.60;99.90;;;;;;6281627;22;20421;-83
2021/06/27 00:29:38;;;;;;;467.00;443.97;;;19.50;99.90;;;;;;6282545;22;20434;-83
2021/06/27 00:32:06;;;;;;;377.97;358.90;;;19.50;99.90;;;;;;6282454;22;20497;-83
2021/06/27 00:34:33;;;;;;;555.90;527.30;;;19.50;99.90;;;;;;6281786;22;20463;-83
2021/06/27 00:37:01;;;;;;;548.47;519.30;;;19.60;99.90;;;;;;6282031;22;20498;-84
2021/06/27 00:39:28;;;;;;;447.30;425.10;;;19.50;99.90;;;;;;6280590;22;20446;-83
2021/06/27 00:41:54;;;;;;;474.30;450.67;;;19.50;99.90;;;;;;6281955;22;20526;-84
2021/06/27 00:44:21;;;;;;;485.57;459.77;;;19.50;99.90;;;;;;6281027;22;20418;-84
2021/06/27 00:46:53;;;;;;;432.90;411.10;;;19.50;99.90;;;;;;6281914;22;20416;-84
2021/06/27 00:49:20;;;;;;;415.77;395.20;;;19.50;99.90;;;;;;6281640;22;20410;-84
2021/06/27 00:51:47;;;;;;;463.23;440.07;;;19.50;99.90;;;;;;6281051;22;20469;-84
2021/06/27 00:54:16;;;;;;;340.57;323.60;;;19.40;99.90;;;;;;6282160;22;20533;-84
2021/06/27 00:56:45;;;;;;;213.00;200.83;;;19.40;99.90;;;;;;6280681;22;20402;-84
2021/06/27 00:59:13;;;;;;;270.53;254.77;;;19.50;99.90;;;;;;6281464;22;20474;-83
2021/06/27 01:01:39;;;;;;;468.80;444.90;;;19.50;99.90;;;;;;6279451;22;21213;-83
2021/06/27 01:04:06;;;;;;;238.63;225.03;;;19.40;99.90;;;;;;6282328;22;20430;-84
2021/06/27 01:06:33;;;;;;;336.17;319.83;;;19.40;99.90;;;;;;6281281;22;20472;-83
2021/06/27 01:09:00;;;;;;;255.13;241.27;;;19.30;99.90;;;;;;6281308;22;20443;-83
2021/06/27 01:11:28;;;;;;;100.57;92.70;;;19.30;99.90;;;;;;6281121;22;20419;-83
2021/06/27 01:13:58;;;;;;;87.77;80.67;;;19.20;99.90;;;;;;6286966;22;20462;-83
2021/06/27 01:16:25;;;;;;;117.97;109.33;;;19.20;99.90;;;;;;6295872;22;20494;-84
2021/06/27 01:18:55;;;;;;;73.20;66.63;;;19.10;99.90;;;;;;6292621;22;20932;-83
2021/06/27 01:21:24;;;;;;;63.57;52.23;;;19.10;99.90;;;;;;6293149;22;20411;-83
2021/06/27 01:23:51;;;;;;;37.87;20.43;;;19.00;99.90;;;;;;6292406;22;20391;-83
2021/06/27 01:26:17;;;;;;;36.40;21.17;;;18.90;99.90;;;;;;6294298;22;20504;-85
2021/06/27 01:28:44;;;;;;;29.80;12.40;;;18.90;99.90;;;;;;6282320;22;20427;-83
2021/06/27 01:31:11;;;;;;;31.20;15.70;;;18.90;99.90;;;;;;6281280;22;20434;-85
2021/06/27 01:33:39;;;;;;;31.90;14.63;;;18.80;99.90;;;;;;6282085;22;20526;-83
2021/06/27 01:36:06;;;;;;;28.90;11.40;;;18.80;99.90;;;;;;6281204;22;20468;-83
2021/06/27 01:38:35;;;;;;;27.57;10.30;;;18.80;99.90;;;;;;6282015;22;20486;-83
2021/06/27 01:41:03;;;;;;;22.63;9.93;;;18.70;99.90;;;;;;6281905;22;20844;-84
2021/06/27 01:43:30;;;;;;;25.00;9.47;;;18.70;99.90;;;;;;6281916;22;20881;-83
2021/06/27 01:45:59;;;;;;;23.27;9.43;;;18.60;99.90;;;;;;6281427;22;20443;-83
2021/06/27 01:48:27;;;;;;;25.40;9.40;;;18.60;99.90;;;;;;6281451;22;20436;-83
2021/06/27 01:50:58;;;;;;;24.60;9.40;;;18.60;99.90;;;;;;6282330;22;20442;-83
2021/06/27 01:53:26;;;;;;;23.00;9.37;;;18.50;99.90;;;;;;6281228;22;20453;-83
2021/06/27 01:56:05;;;;;;;22.40;8.73;;;18.40;99.90;;;;;;6283814;22;20406;-83
2021/06/27 01:58:34;;;;;;;22.40;9.07;;;18.40;99.90;;;;;;6283297;22;20387;-83
2021/06/27 02:01:01;;;;;;;24.30;9.37;;;18.40;99.90;;;;;;6282960;22;20406;-83
2021/06/27 02:03:28;;;;;;;22.17;9.47;;;18.30;99.90;;;;;;6283165;22;20422;-83
2021/06/27 02:05:54;;;;;;;22.97;9.47;;;18.30;99.90;;;;;;6283472;22;20497;-83
2021/06/27 02:08:21;;;;;;;23.23;8.83;;;18.30;99.90;;;;;;6283423;22;20818;-82
2021/06/27 02:10:48;;;;;;;22.17;9.67;;;18.20;99.90;;;;;;6283237;22;20494;-84
2021/06/27 02:13:16;;;;;;;24.07;10.10;;;18.20;99.90;;;;;;6283893;22;20439;-83
2021/06/27 02:15:43;;;;;;;22.80;9.10;;;18.10;99.90;;;;;;6283471;22;20441;-83
2021/06/27 02:18:30;;;;;;;22.20;9.10;;;18.20;99.90;;;;;;6282718;22;20961;-83
2021/06/27 02:20:58;;;;;;;19.83;8.40;;;18.20;99.90;;;;;;6283778;22;20426;-83
2021/06/27 02:23:25;;;;;;;21.70;9.10;;;18.20;99.90;;;;;;6283414;22;20482;-82
2021/06/27 02:25:52;;;;;;;21.53;8.73;;;18.20;99.90;;;;;;6283936;22;20407;-83
2021/06/27 02:28:21;;;;;;;22.87;9.50;;;18.20;99.90;;;;;;6282707;22;20438;-83
2021/06/27 02:30:48;;;;;;;21.57;9.10;;;18.20;99.90;;;;;;6287707;22;20475;-83
2021/06/27 02:33:15;;;;;;;21.73;8.80;;;18.10;99.90;;;;;;6285736;22;20451;-83
2021/06/27 02:35:42;;;;;;;22.13;10.50;;;18.10;99.90;;;;;;6287345;22;20466;-83
2021/06/27 02:38:09;;;;;;;21.77;10.20;;;18.10;99.90;;;;;;6289442;22;20417;-83
2021/06/27 02:40:35;;;;;;;19.90;8.93;;;18.00;99.90;;;;;;6290026;22;20441;-83
2021/06/27 02:43:02;;;;;;;21.10;9.93;;;18.10;99.90;;;;;;6283614;22;20510;-83
2021/06/27 02:45:31;;;;;;;19.33;7.53;;;18.00;99.90;;;;;;6283650;22;20419;-82
2021/06/27 02:47:58;;;;;;;19.97;9.50;;;18.10;99.90;;;;;;6282864;22;20387;-83
2021/06/27 02:50:25;;;;;;;20.83;8.30;;;18.10;99.90;;;;;;6281472;22;20498;-82
2021/06/27 02:52:52;;;;;;;22.23;8.50;;;18.00;99.90;;;;;;6283675;22;20466;-82
2021/06/27 02:55:19;;;;;;;19.90;9.30;;;18.00;99.90;;;;;;6283101;22;20538;-82
2021/06/27 02:57:46;;;;;;;18.77;8.63;;;18.00;99.90;;;;;;6283177;22;20394;-83
2021/06/27 03:00:15;;;;;;;20.60;8.10;;;18.00;99.90;;;;;;6281371;22;20792;-82
2021/06/27 03:02:43;;;;;;;18.90;7.90;;;18.00;99.90;;;;;;6282151;22;20437;-82
2021/06/27 03:05:11;;;;;;;21.30;8.70;;;18.00;99.90;;;;;;6282736;22;20467;-82
2021/06/27 03:07:38;;;;;;;20.90;8.03;;;18.00;99.90;;;;;;6282519;22;20969;-82
2021/06/27 03:10:07;;;;;;;19.47;8.10;;;17.90;99.90;;;;;;6282648;22;20441;-82
2021/06/27 03:12:34;;;;;;;19.70;8.17;;;17.90;99.90;;;;;;6282026;22;20429;-82
2021/06/27 03:15:01;;;;;;;21.03;8.50;;;17.90;99.90;;;;;;6283218;22;20522;-82
2021/06/27 03:17:28;;;;;;;19.83;9.43;;;17.90;99.90;;;;;;6283008;22;20434;-83
2021/06/27 03:19:57;;;;;;;21.30;9.13;;;17.90;99.90;;;;;;6281403;22;20485;-82
2021/06/27 03:22:24;;;;;;;21.97;9.50;;;17.90;99.90;;;;;;6282177;22;20454;-81
2021/06/27 03:24:50;;;;;;;19.70;9.87;;;17.90;99.90;;;;;;6281764;22;20407;-82
2021/06/27 03:27:19;;;;;;;20.70;9.77;;;17.90;99.90;;;;;;6282136;22;20470;-82
2021/06/27 03:29:46;;;;;;;18.93;9.53;;;17.90;99.90;;;;;;6282150;22;20414;-82
2021/06/27 03:32:13;;;;;;;18.47;8.00;;;17.90;99.90;;;;;;6282470;22;20458;-82
2021/06/27 03:34:40;;;;;;;18.30;7.93;;;17.80;99.90;;;;;;6281791;22;20529;-81
2021/06/27 03:37:08;;;;;;;19.67;9.33;;;17.80;99.90;;;;;;6282066;22;20454;-82
2021/06/27 03:39:35;;;;;;;19.30;9.10;;;17.90;99.90;;;;;;6282005;22;20429;-82
2021/06/27 03:42:02;;;;;;;18.27;9.27;;;17.80;99.90;;;;;;6281210;22;20437;-82
2021/06/27 03:44:29;;;;;;;19.50;9.60;;;17.80;99.90;;;;;;6281793;22;20435;-83
2021/06/27 03:46:57;;;;;;;18.97;8.40;;;17.80;99.90;;;;;;6281896;22;20811;-84
2021/06/27 03:49:24;;;;;;;20.03;8.77;;;17.80;99.90;;;;;;6281481;22;20464;-82
2021/06/27 03:51:51;;;;;;;21.30;9.50;;;17.70;99.90;;;;;;6282257;22;20437;-82
2021/06/27 03:54:20;;;;;;;24.17;10.50;;;17.80;99.90;;;;;;6284080;22;20473;-83
2021/06/27 03:56:47;;;;;;;22.70;10.13;;;17.80;99.90;;;;;;6287805;22;20426;-84
2021/06/27 03:59:13;;;;;;;25.63;9.63;;;17.80;99.90;;;;;;6286784;22;20963;-84
2021/06/27 04:01:40;;;;;;;22.03;10.80;;;17.80;99.90;;;;;;6287358;22;20509;-84
2021/06/27 04:04:07;;;;;;;20.83;10.50;;;17.80;99.90;;;;;;6286933;22;20810;-84
2021/06/27 04:06:34;;;;;;;20.67;9.50;;;17.90;99.90;;;;;;6284600;22;20413;-84
2021/06/27 04:09:01;;;;;;;20.33;9.27;;;17.90;99.90;;;;;;6284696;22;20434;-84
2021/06/27 04:11:29;;;;;;;21.70;9.50;;;18.00;99.90;;;;;;6284854;22;20486;-84
2021/06/27 04:13:56;;;;;;;19.33;9.13;;;18.10;99.90;;;;;;6285085;22;20439;-84
2021/06/27 04:16:22;;;;;;;19.57;9.03;;;18.10;99.90;;;;;;6285020;22;20415;-84
2021/06/27 04:18:49;;;;;;;21.37;9.90;;;18.20;99.90;;;;;;6284754;22;20434;-83
2021/06/27 04:21:16;;;;;;;19.73;9.07;;;18.30;99.90;;;;;;6284021;22;20407;-83
2021/06/27 04:23:43;;;;;;;20.07;8.83;;;18.30;99.90;;;;;;6283837;22;20474;-84
2021/06/27 04:26:10;;;;;;;20.03;9.33;;;18.50;99.90;;;;;;6283420;22;20413;-83
2021/06/27 04:28:39;;;;;;;19.17;8.50;;;18.50;99.90;;;;;;6282814;22;20424;-82
2021/06/27 04:31:06;;;;;;;19.67;8.93;;;18.70;99.90;;;;;;6284347;22;20474;-83
2021/06/27 04:33:33;;;;;;;20.40;8.10;;;18.80;99.90;;;;;;6283671;22;20491;-83
2021/06/27 04:36:00;;;;;;;19.03;8.73;;;18.80;99.90;;;;;;6288325;22;20445;-83
2021/06/27 04:38:26;;;;;;;22.80;9.77;;;18.90;99.90;;;;;;6282685;22;20454;-83
2021/06/27 04:40:54;;;;;;;20.27;9.40;;;19.10;99.90;;;;;;6282230;22;20433;-84
2021/06/27 04:45:57;;;;;;;20.83;8.90;;;19.20;99.90;;;;;;6274638;22;20407;-80
2021/06/27 04:48:24;;;;;;;22.70;10.33;;;19.30;99.90;;;;;;6278954;22;20430;-79
2021/06/27 04:50:51;;;;;;;19.67;8.60;;;19.30;99.90;;;;;;6281002;22;20403;-79
2021/06/27 04:53:18;;;;;;;22.47;8.87;;;19.20;99.90;;;;;;6281174;22;20813;-79
2021/06/27 04:55:45;;;;;;;21.63;8.83;;;19.30;99.90;;;;;;6309503;22;20445;-79
2021/06/27 04:58:13;;;;;;;25.20;11.90;;;19.30;99.90;;;;;;6309898;22;20410;-80
2021/06/27 05:00:41;;;;;;;21.60;10.00;;;19.40;99.90;;;;;;6310661;22;20412;-80
2021/06/27 05:03:09;;;;;;;19.80;8.30;;;19.40;99.90;;;;;;6310787;22;20414;-80
2021/06/27 05:05:36;;;;;;;21.27;9.30;;;19.50;99.90;;;;;;6311742;22;20456;-80
2021/06/27 05:08:03;;;;;;;21.10;8.53;;;19.60;99.90;;;;;;6310119;22;20778;-80
2021/06/27 05:10:30;;;;;;;21.80;10.07;;;19.70;99.90;;;;;;6309446;22;20448;-80
2021/06/27 05:12:57;;;;;;;20.20;8.73;;;19.80;99.90;;;;;;6309646;22;20750;-80
2021/06/27 05:15:24;;;;;;;20.47;8.93;;;19.80;99.90;;;;;;6308015;22;20477;-80
2021/06/27 05:17:50;;;;;;;22.33;8.57;;;19.80;99.90;;;;;;6308385;22;20402;-80
2021/06/27 05:20:19;;;;;;;20.80;9.40;;;19.90;99.90;;;;;;6307276;22;20445;-79
2021/06/27 05:22:46;;;;;;;20.70;9.00;;;19.90;99.90;;;;;;6308312;22;20444;-78
2021/06/27 05:25:13;;;;;;;21.97;9.80;;;20.00;99.90;;;;;;6314259;22;20422;-80
2021/06/27 05:27:40;;;;;;;22.60;9.80;;;20.00;99.90;;;;;;6310178;22;20412;-78
2021/06/27 05:30:08;;;;;;;22.83;10.40;;;20.00;99.90;;;;;;6310889;22;20408;-79
2021/06/27 05:32:35;;;;;;;22.80;11.63;;;20.00;99.90;;;;;;6310929;22;20942;-82
2021/06/27 05:35:02;;;;;;;22.80;10.50;;;20.10;99.90;;;;;;6313791;22;20465;-82
2021/06/27 05:37:30;;;;;;;23.87;10.40;;;20.10;99.90;;;;;;6313143;22;20405;-81
2021/06/27 05:39:57;;;;;;;22.17;9.60;;;20.10;99.90;;;;;;6313352;22;20410;-81
2021/06/27 05:42:23;;;;;;;22.60;9.80;;;20.10;99.90;;;;;;6310388;22;20469;-80
2021/06/27 05:44:50;;;;;;;24.00;11.50;;;20.10;99.90;;;;;;6310126;22;20517;-81
2021/06/27 05:47:17;;;;;;;23.63;10.00;;;20.10;99.90;;;;;;6312971;22;20410;-79
2021/06/27 05:49:44;;;;;;;20.07;8.43;;;20.10;99.90;;;;;;6311191;22;20441;-79
2021/06/27 05:52:11;;;;;;;21.97;9.80;;;20.10;99.90;;;;;;6313781;22;20485;-80
2021/06/27 05:54:39;;;;;;;20.97;9.80;;;20.20;99.90;;;;;;6313009;22;20469;-80
2021/06/27 05:57:06;;;;;;;22.50;10.20;;;20.20;99.90;;;;;;6313906;22;20946;-80
2021/06/27 05:59:33;;;;;;;21.77;8.47;;;20.20;99.90;;;;;;6317981;22;20405;-84
2021/06/27 06:02:00;;;;;;;21.70;10.03;;;20.30;99.90;;;;;;6315643;22;20409;-84
2021/06/27 06:04:26;;;;;;;22.70;9.93;;;20.30;99.90;;;;;;6314760;22;20517;-84
2021/06/27 06:06:53;;;;;;;23.40;9.83;;;20.30;99.90;;;;;;6313590;22;20410;-85
2021/06/27 06:09:20;;;;;;;21.50;8.20;;;20.30;99.90;;;;;;6314877;22;20429;-84
2021/06/27 06:11:48;;;;;;;21.30;9.63;;;20.40;99.90;;;;;;6318476;22;20835;-85
2021/06/27 06:14:15;;;;;;;27.67;9.93;;;20.40;99.90;;;;;;6318800;22;20449;-84
2021/06/27 06:16:45;;;;;;;22.17;9.03;;;20.50;99.90;;;;;;6317720;22;20460;-84
2021/06/27 06:19:17;;;;;;;22.33;8.87;;;20.60;99.90;;;;;;6318195;22;20473;-84
2021/06/27 06:21:44;;;;;;;20.13;8.33;;;20.60;99.90;;;;;;6318820;22;20394;-84
2021/06/27 06:24:11;;;;;;;22.13;9.60;;;20.70;99.90;;;;;;6317391;22;20429;-85
2021/06/27 06:26:38;;;;;;;21.70;9.10;;;20.70;99.90;;;;;;6317621;22;20527;-84
2021/06/27 06:29:06;;;;;;;24.57;10.20;;;20.80;99.90;;;;;;6318684;22;20462;-84
2021/06/27 06:31:33;;;;;;;22.93;11.00;;;20.80;99.90;;;;;;6317404;22;20406;-83
2021/06/27 06:34:00;;;;;;;22.60;10.00;;;20.90;99.90;;;;;;6318035;22;20477;-84
2021/06/27 06:36:27;;;;;;;21.60;9.80;;;21.00;99.90;;;;;;6317438;22;20843;-84
2021/06/27 06:38:54;;;;;;;23.23;10.13;;;21.00;99.90;;;;;;6316707;22;20922;-84
2021/06/27 06:41:24;;;;;;;21.20;8.40;;;21.10;99.90;;;;;;6313200;22;20417;-84
2021/06/27 06:43:51;;;;;;;22.93;9.63;;;21.20;99.90;;;;;;6313535;22;20437;-83
2021/06/27 06:46:22;;;;;;;27.47;11.17;;;21.20;99.90;;;;;;6313036;22;20388;-84
2021/06/27 06:48:51;;;;;;;20.17;8.40;;;21.20;99.90;;;;;;6312389;22;20406;-84
2021/06/27 06:51:21;;;;;;;21.90;8.67;;;21.30;99.90;;;;;;6312637;22;20408;-85
2021/06/27 06:53:48;;;;;;;23.20;9.07;;;21.40;99.90;;;;;;6313546;22;20821;-84
2021/06/27 06:56:17;;;;;;;23.50;10.17;;;21.50;99.90;;;;;;6313156;22;20449;-84
2021/06/27 06:58:44;;;;;;;23.00;9.53;;;21.60;99.90;;;;;;6312981;22;20457;-83
2021/06/27 07:01:11;;;;;;;26.77;11.17;;;21.70;99.90;;;;;;6312998;22;20462;-84
2021/06/27 07:03:39;;;;;;;29.43;12.83;;;21.80;99.90;;;;;;6314375;22;20488;-85
2021/06/27 07:06:07;;;;;;;23.50;11.87;;;21.80;99.90;;;;;;6315486;22;20432;-85
2021/06/27 07:08:34;;;;;;;27.37;10.20;;;22.00;99.90;;;;;;6315947;22;20465;-84
2021/06/27 07:11:01;;;;;;;26.40;12.93;;;22.10;99.90;;;;;;6316728;22;20496;-85
2021/06/27 07:13:28;;;;;;;27.00;13.50;;;22.10;99.90;;;;;;6315382;22;20434;-84
2021/06/27 07:15:55;;;;;;;26.90;12.40;;;22.20;99.90;;;;;;6318236;22;20473;-85
2021/06/27 07:18:22;;;;;;;29.27;14.73;;;22.30;99.90;;;;;;6324650;22;20440;-83
2021/06/27 07:20:50;;;;;;;25.47;11.10;;;22.40;99.90;;;;;;6330408;22;20477;-84
2021/06/27 07:23:18;;;;;;;25.13;11.57;;;22.60;99.90;;;;;;6329896;22;20406;-84
2021/06/27 07:25:45;;;;;;;25.17;11.90;;;22.70;99.90;;;;;;6322827;22;20418;-85
2021/06/27 07:28:12;;;;;;;26.57;14.77;;;22.90;99.90;;;;;;6319397;22;20414;-84
2021/06/27 07:30:39;;;;;;;25.57;11.40;;;23.00;99.90;;;;;;6320406;22;20473;-85
2021/06/27 07:33:06;;;;;;;25.37;9.33;;;23.10;99.90;;;;;;6317322;22;20440;-85
2021/06/27 07:35:33;;;;;;;50.47;44.17;;;23.00;99.90;;;;;;6317342;22;20442;-85
2021/06/27 07:38:01;;;;;;;26.50;11.70;;;23.10;99.90;;;;;;6318555;22;20440;-85
2021/06/27 07:40:28;;;;;;;25.27;12.30;;;23.00;99.90;;;;;;6318257;22;20432;-85
2021/06/27 07:42:55;;;;;;;26.37;12.00;;;23.20;99.90;;;;;;6316664;22;20465;-84
2021/06/27 07:45:22;;;;;;;23.27;9.97;;;23.30;99.90;;;;;;6316869;22;20824;-85
2021/06/27 07:47:48;;;;;;;28.07;11.43;;;23.30;99.90;;;;;;6318170;22;20493;-85
2021/06/27 07:50:15;;;;;;;22.70;8.40;;;23.50;99.90;;;;;;6317614;22;20500;-85
2021/06/27 07:52:42;;;;;;;20.30;8.07;;;23.70;99.90;;;;;;6322341;22;20402;-85
2021/06/27 07:55:11;;;;;;;18.70;6.87;;;24.00;99.90;;;;;;6327198;22;20520;-84
2021/06/27 07:57:38;;;;;;;26.23;13.53;;;24.20;99.90;;;;;;6326125;22;20422;-84
2021/06/27 08:00:07;;;;;;;22.50;10.30;;;24.50;99.90;;;;;;6317028;22;20474;-85
2021/06/27 08:02:34;;;;;;;28.50;13.63;;;24.70;99.90;;;;;;6316407;22;20410;-85
2021/06/27 08:05:01;;;;;;;22.53;7.53;;;24.90;99.90;;;;;;6315733;22;20468;-85
2021/06/27 08:07:27;;;;;;;16.20;6.77;;;25.00;99.90;;;;;;6315100;22;20416;-85
2021/06/27 08:09:55;;;;;;;13.27;6.43;;;25.20;99.90;;;;;;6314376;22;20444;-85
2021/06/27 08:12:23;;;;;;;13.53;6.03;;;25.50;99.90;;;;;;6314642;22;20412;-86
2021/06/27 08:14:50;;;;;;;12.90;6.43;;;25.60;99.90;;;;;;6313385;22;20493;-84
2021/06/27 08:17:16;;;;;;;14.17;6.63;;;25.70;99.90;;;;;;6316945;22;20445;-85
2021/06/27 08:19:45;;;;;;;14.80;6.07;;;25.50;99.90;;;;;;6316565;22;20410;-85
2021/06/27 08:22:12;;;;;;;11.93;6.43;;;25.70;99.90;;;;;;6317242;22;20744;-84
2021/06/27 08:24:39;;;;;;;19.40;6.73;;;25.80;99.90;;;;;;6328581;22;20422;-85
2021/06/27 08:27:07;;;;;;;17.40;5.97;;;26.00;99.90;;;;;;6333806;22;20386;-85
2021/06/27 08:29:35;;;;;;;12.07;6.40;;;26.20;99.90;;;;;;6331697;22;20651;-86
2021/06/27 08:32:02;;;;;;;12.97;5.73;;;26.40;99.90;;;;;;6315936;22;20406;-85
2021/06/27 08:34:29;;;;;;;13.90;6.93;;;26.60;99.90;;;;;;6309131;22;20410;-85
2021/06/27 08:36:56;;;;;;;29.93;10.50;;;26.70;99.90;;;;;;6308224;22;20449;-85
2021/06/27 08:39:22;;;;;;;1088.63;999.90;;;26.80;99.90;;;;;;6307541;22;20485;-86
2021/06/27 08:41:50;;;;;;;959.60;890.57;;;26.90;99.90;;;;;;6306491;22;20461;-87
2021/06/27 08:44:21;;;;;;;957.27;886.03;;;27.10;99.90;;;;;;6305374;22;20442;-86
2021/06/27 08:46:50;;;;;;;822.73;770.27;;;27.10;99.90;;;;;;6305728;22;20704;-87
2021/06/27 08:49:17;;;;;;;851.80;795.90;;;27.20;99.90;;;;;;6306092;22;20406;-86
2021/06/27 08:51:44;;;;;;;1999.90;999.90;;;27.30;99.90;;;;;;6312428;22;20414;-85
2021/06/27 08:54:15;;;;;;;1999.90;999.90;;;27.40;99.90;;;;;;6307379;22;20454;-86
2021/06/27 08:56:42;;;;;;;758.53;708.00;;;27.40;99.90;;;;;;6305935;22;20442;-85
2021/06/27 08:59:12;;;;;;;1080.70;719.37;;;27.40;99.90;;;;;;6306500;22;20915;-86
2021/06/27 09:01:39;;;;;;;417.47;387.93;;;27.40;99.90;;;;;;6309734;22;20960;-85
2021/06/27 09:04:07;;;;;;;1005.00;648.80;;;27.50;99.90;;;;;;6308711;22;20422;-86
2021/06/27 09:06:36;;;;;;;1999.90;999.90;;;27.50;99.90;;;;;;6308658;22;20433;-86
2021/06/27 09:09:11;;;;;;;1999.90;999.90;;;27.70;99.90;;;;;;6308496;22;20749;-85
2021/06/27 09:11:38;;;;;;;1003.77;936.20;;;27.50;99.90;;;;;;6309663;22;20401;-85
2021/06/27 09:14:05;;;;;;;1999.90;999.90;;;27.80;99.90;;;;;;6309954;22;20824;-85
2021/06/27 09:16:32;;;;;;;1999.90;999.90;;;28.10;99.90;;;;;;6309427;22;20477;-86
2021/06/27 09:19:02;;;;;;;1999.90;999.90;;;28.40;99.90;;;;;;6310394;22;20412;-85
2021/06/27 09:21:31;;;;;;;1999.90;999.90;;;28.50;99.90;;;;;;6309652;22;20895;-85
2021/06/27 09:23:58;;;;;;;1999.90;999.90;;;28.60;99.90;;;;;;6310055;22;20762;-86
2021/06/27 09:26:27;;;;;;;1999.90;999.90;;;28.70;99.90;;;;;;6309527;22;20549;-85
2021/06/27 09:28:54;;;;;;;721.93;649.97;;;28.40;99.90;;;;;;6309360;22;20402;-84
2021/06/27 09:31:40;;;;;;;1999.90;999.90;;;28.40;99.90;;;;;;6310389;22;20481;-86
2021/06/27 09:34:09;;;;;;;1999.90;999.90;;;28.20;99.90;;;;;;6311382;22;20955;-85
2021/06/27 09:36:44;;;;;;;1999.90;999.90;;;28.30;99.90;;;;;;6308305;22;20448;-85
2021/06/27 09:39:14;;;;;;;1999.90;999.90;;;28.60;99.90;;;;;;6309990;22;20389;-85
2021/06/27 09:41:49;;;;;;;1999.90;999.90;;;28.80;99.90;;;;;;6308211;22;20477;-85
2021/06/27 09:44:17;;;;;;;1526.60;844.10;;;28.90;99.90;;;;;;6310975;22;20444;-85
2021/06/27 09:46:46;;;;;;;1999.90;999.90;;;28.70;99.90;;;;;;6309234;22;20489;-86
2021/06/27 09:49:15;;;;;;;1999.90;999.90;;;28.80;99.90;;;;;;6308878;22;20446;-85
2021/06/27 09:51:52;;;;;;;424.00;378.13;;;29.20;99.90;;;;;;6307758;22;20410;-85
2021/06/27 09:54:21;;;;;;;1379.70;684.87;;;29.40;99.90;;;;;;6308290;22;20457;-86
2021/06/27 09:56:49;;;;;;;1999.90;999.90;;;29.60;99.90;;;;;;6308619;22;20520;-87
2021/06/27 09:59:23;;;;;;;1999.90;999.90;;;29.80;99.90;;;;;;6307784;22;20912;-85
2021/06/27 10:01:51;;;;;;;1999.90;999.90;;;29.90;99.90;;;;;;6312228;22;20392;-85
2021/06/27 10:04:29;;;;;;;1999.90;999.90;;;30.10;99.90;;;;;;6309761;22;20528;-86
2021/06/27 10:06:58;;;;;;;393.33;370.33;;;30.30;99.90;;;;;;6309061;22;20386;-85
2021/06/27 10:09:29;;;;;;;624.80;571.27;;;30.30;99.90;;;;;;6310524;22;20445;-85
2021/06/27 10:12:01;;;;;;;818.33;763.50;;;30.20;99.90;;;;;;6311302;22;20488;-85
2021/06/27 10:14:30;;;;;;;779.03;719.30;;;30.60;99.90;;;;;;6311932;22;20438;-85
2021/06/27 10:16:58;;;;;;;772.33;717.93;;;30.20;99.90;;;;;;6315113;22;20978;-85
2021/06/27 10:19:26;;;;;;;669.93;627.00;;;30.50;99.90;;;;;;6316539;22;20481;-84
2021/06/27 10:21:54;;;;;;;800.37;750.60;;;30.40;99.90;;;;;;6314470;22;20418;-84
2021/06/27 10:24:23;;;;;;;759.47;699.53;;;30.50;99.90;;;;;;6315012;22;20457;-85
2021/06/27 10:26:50;;;;;;;676.57;635.97;;;30.50;99.90;;;;;;6316641;22;20500;-85
2021/06/27 10:29:18;;;;;;;712.27;668.50;;;31.00;99.90;;;;;;6315575;22;20417;-85
2021/06/27 10:31:46;;;;;;;1003.57;936.67;;;31.00;99.90;;;;;;6310166;22;20406;-85
2021/06/27 10:34:13;;;;;;;867.63;803.57;;;31.20;99.90;;;;;;6313681;22;20429;-83
2021/06/27 10:36:45;;;;;;;619.97;583.57;;;30.60;99.90;;;;;;6311559;22;20955;-85
2021/06/27 10:39:14;;;;;;;548.93;517.10;;;30.90;99.90;;;;;;6313124;22;20449;-86
2021/06/27 10:41:59;;;;;;;226.83;214.37;;;31.00;99.90;;;;;;6311187;22;20409;-84
2021/06/27 10:44:27;;;;;;;595.70;566.20;;;31.00;99.90;;;;;;6312603;22;20442;-84
2021/06/27 10:46:57;;;;;;;998.17;935.73;;;31.30;99.90;;;;;;6310291;22;20405;-84
2021/06/27 10:49:54;;;;;;;958.20;898.73;;;31.90;99.90;;;;;;6310197;22;20493;-86
2021/06/27 10:52:22;;;;;;;1070.33;999.53;;;32.30;99.90;;;;;;6184185;23;20420;-85
2021/06/27 10:55:20;;;;;;;573.37;545.87;;;32.50;99.90;;;;;;6295988;22;20472;-86
2021/06/27 10:58:01;;;;;;;520.27;494.20;;;32.90;99.90;;;;;;6324662;22;20426;-85
2021/06/27 11:00:49;;;;;;;475.20;453.07;;;33.10;99.90;;;;;;6316961;22;20398;-85
2021/06/27 11:03:30;;;;;;;455.17;433.70;;;32.70;99.90;;;;;;6312612;22;20406;-84
2021/06/27 11:05:58;;;;;;;553.97;527.77;;;32.00;99.90;;;;;;6313223;22;20397;-85
2021/06/27 11:08:39;;;;;;;592.63;563.73;;;31.70;99.90;;;;;;6312278;22;20414;-85
2021/06/27 11:11:16;;;;;;;644.13;608.60;;;31.50;99.90;;;;;;6312592;22;20397;-85
2021/06/27 11:13:45;;;;;;;549.47;523.30;;;31.50;99.90;;;;;;6314864;22;20390;-85
2021/06/27 11:16:15;;;;;;;547.07;521.40;;;31.50;99.90;;;;;;6313551;22;20434;-85
2021/06/27 11:18:45;;;;;;;598.83;568.27;;;32.00;99.90;;;;;;6312420;22;20413;-85
2021/06/27 11:21:34;;;;;;;530.03;505.43;;;32.10;99.90;;;;;;6309796;22;20426;-85
2021/06/27 11:24:10;;;;;;;448.20;427.33;;;31.90;99.90;;;;;;6296696;22;20501;-86
2021/06/27 11:26:56;;;;;;;1046.93;980.17;;;31.50;99.90;;;;;;6309367;22;20481;-85
2021/06/27 11:29:43;;;;;;;433.43;412.50;;;31.10;99.90;;;;;;6310698;22;20416;-85
2021/06/27 11:32:47;;;;;;;415.30;395.83;;;30.70;99.90;;;;;;6312511;22;20752;-85
2021/06/27 11:35:39;;;;;;;903.73;849.10;;;30.40;99.90;;;;;;6310552;22;20482;-85
2021/06/27 11:38:07;;;;;;;71.87;66.20;;;30.70;99.90;;;;;;6312904;22;20441;-85
2021/06/27 11:40:49;;;;;;;62.00;58.07;;;30.90;99.90;;;;;;6312143;22;20494;-85
2021/06/27 11:43:16;;;;;;;809.73;765.20;;;31.50;99.90;;;;;;6311867;22;20466;-84
2021/06/27 11:45:48;;;;;;;593.97;564.77;;;32.20;99.90;;;;;;6310243;22;20524;-85
2021/06/27 11:48:16;;;;;;;6.60;4.80;;;33.70;99.90;;;;;;6310299;22;20434;-84
2021/06/27 11:50:52;;;;;;;7.60;5.00;;;35.20;99.90;;;;;;6312399;22;20485;-84
2021/06/27 11:53:23;;;;;;;5.83;3.90;;;36.10;99.90;;;;;;6310356;22;20425;-84
2021/06/27 11:56:04;;;;;;;7.40;5.23;;;37.40;99.90;;;;;;6290828;22;20935;-85
2021/06/27 11:58:32;;;;;;;7.50;4.60;;;38.10;99.90;;;;;;6287629;22;20399;-85
2021/06/27 12:01:06;;;;;;;9.13;5.30;;;38.30;95.50;;;;;;6285521;22;20916;-86
2021/06/27 12:03:33;;;;;;;6.70;5.10;;;37.70;93.40;;;;;;6284477;22;20425;-84
2021/06/27 12:06:04;;;;;;;6.73;4.87;;;37.30;99.20;;;;;;6286821;22;20443;-84
2021/06/27 12:08:31;;;;;;;7.00;5.10;;;37.60;99.40;;;;;;6289766;22;20391;-83
2021/06/27 12:11:01;;;;;;;45.20;42.37;;;38.00;97.50;;;;;;6289820;22;20388;-84
2021/06/27 12:13:29;;;;;;;7.57;4.47;;;38.60;93.40;;;;;;6291024;22;20473;-85
2021/06/27 12:15:58;;;;;;;6.60;4.67;;;39.60;96.30;;;;;;6288646;22;20518;-84
2021/06/27 12:18:26;;;;;;;6.13;4.27;;;40.80;92.00;;;;;;6287858;22;20430;-84
2021/06/27 12:20:54;;;;;;;7.07;4.47;;;40.80;84.10;;;;;;6288769;22;20403;-84
2021/06/27 12:23:28;;;;;;;6.03;4.20;;;41.20;86.00;;;;;;6287709;22;20754;-84
2021/06/27 12:26:00;;;;;;;6.53;4.67;;;42.00;88.20;;;;;;6288637;22;20430;-85
2021/06/27 12:28:34;;;;;;;7.53;5.07;;;42.90;72.70;;;;;;6288902;22;20733;-85
2021/06/27 12:31:07;;;;;;;6.37;5.00;;;42.60;70.40;;;;;;6290361;22;20456;-84
2021/06/27 12:33:37;;;;;;;7.00;4.83;;;40.60;76.50;;;;;;6287580;22;20395;-86
2021/06/27 12:36:07;;;;;;;6.43;4.33;;;38.90;78.00;;;;;;6287809;22;20480;-85